createdAt,value
2022-11-13T00:02:35.617Z,20.48
2022-11-13T00:05:22.714Z,17.63
2022-11-13T00:08:10.607Z,17.15
2022-11-13T00:11:11.861Z,16.33
2022-11-13T00:13:58.440Z,15.60
2022-11-13T00:16:45.156Z,17.02
2022-11-13T00:19:32.573Z,16.40
2022-11-13T00:22:19.710Z,15.45
2022-11-13T00:25:06.943Z,15.73
2022-11-13T00:27:54.227Z,16.88
2022-11-13T00:30:41.819Z,17.02
2022-11-13T00:33:55.028Z,18.55
2022-11-13T00:36:35.708Z,21.67
2022-11-13T00:39:22.804Z,19.67
2022-11-13T00:42:09.960Z,18.90
2022-11-13T00:44:58.115Z,18.05
2022-11-13T00:47:44.876Z,18.83
2022-11-13T00:50:31.477Z,17.02
2022-11-13T00:53:18.729Z,17.92
2022-11-13T00:56:05.864Z,20.40
2022-11-13T00:58:52.720Z,19.73
2022-11-13T01:01:39.846Z,20.67
2022-11-13T01:04:29.049Z,21.33
2022-11-13T01:07:15.827Z,20.48
2022-11-13T01:10:04.783Z,21.25
2022-11-13T01:12:51.866Z,20.42
2022-11-13T01:15:40.115Z,18.73
2022-11-13T01:18:27.457Z,19.38
2022-11-13T01:21:18.369Z,18.10
2022-11-13T01:24:05.371Z,18.35
2022-11-13T01:26:52.140Z,19.83
2022-11-13T01:29:41.521Z,21.27
2022-11-13T01:32:35.133Z,17.75
2022-11-13T01:35:22.194Z,18.27
2022-11-13T01:38:08.914Z,18.65
2022-11-13T01:40:56.196Z,20.42
2022-11-13T01:43:43.261Z,19.10
2022-11-13T01:46:33.867Z,21.30
2022-11-13T01:49:40.338Z,19.40
2022-11-13T01:52:34.469Z,18.80
2022-11-13T01:55:21.656Z,18.88
2022-11-13T01:58:11.034Z,18.70
2022-11-13T02:00:58.389Z,18.23
2022-11-13T02:03:45.105Z,19.15
2022-11-13T02:06:41.552Z,17.52
2022-11-13T02:09:40.164Z,17.88
2022-11-13T02:12:35.582Z,18.20
2022-11-13T02:15:26.067Z,18.45
2022-11-13T02:18:14.950Z,17.77
2022-11-13T02:21:31.902Z,18.05
2022-11-13T02:24:27.861Z,18.40
2022-11-13T02:27:33.196Z,17.88
2022-11-13T02:30:26.798Z,16.75
2022-11-13T02:33:24.848Z,15.93
2022-11-13T02:36:12.877Z,17.08
2022-11-13T02:39:12.451Z,18.27
2022-11-13T02:41:59.605Z,16.80
2022-11-13T02:44:46.280Z,17.63
2022-11-13T02:47:34.089Z,17.88
2022-11-13T02:50:22.952Z,17.25
2022-11-13T02:53:11.981Z,17.25
2022-11-13T02:56:01.338Z,19.63
2022-11-13T02:58:49.171Z,16.60
2022-11-13T03:01:36.032Z,16.52
2022-11-13T03:04:23.130Z,17.85
2022-11-13T03:07:10.294Z,16.88
2022-11-13T03:09:57.564Z,17.33
2022-11-13T03:12:44.557Z,17.40
2022-11-13T03:15:31.754Z,18.25
2022-11-13T03:18:18.794Z,16.25
2022-11-13T03:21:08.481Z,15.93
2022-11-13T03:23:55.536Z,16.75
2022-11-13T03:26:42.618Z,16.20
2022-11-13T03:29:29.581Z,16.05
2022-11-13T03:32:16.597Z,17.75
2022-11-13T03:35:03.917Z,17.58
2022-11-13T03:37:51.445Z,17.48
2022-11-13T03:40:38.220Z,17.10
2022-11-13T03:43:25.403Z,16.58
2022-11-13T03:46:12.493Z,16.35
2022-11-13T03:48:59.494Z,15.98
2022-11-13T03:51:46.689Z,17.10
2022-11-13T03:54:33.675Z,17.50
2022-11-13T03:57:20.290Z,19.42
2022-11-13T04:00:07.783Z,17.73
2022-11-13T04:02:54.728Z,17.92
2022-11-13T04:05:43.148Z,17.70
2022-11-13T04:08:30.309Z,18.25
2022-11-13T04:11:17.899Z,17.35
2022-11-13T04:14:05.014Z,19.10
2022-11-13T04:16:51.894Z,18.45
2022-11-13T04:19:39.155Z,16.25
2022-11-13T04:22:26.249Z,15.93
2022-11-13T04:25:14.390Z,15.98
2022-11-13T04:28:01.185Z,15.57
2022-11-13T04:30:48.483Z,16.58
2022-11-13T04:33:35.404Z,16.30
2022-11-13T04:36:24.910Z,15.05
2022-11-13T04:39:11.863Z,15.77
2022-11-13T04:42:17.424Z,16.15
2022-11-13T04:45:05.940Z,15.07
2022-11-13T04:47:53.222Z,15.88
2022-11-13T04:50:40.716Z,15.40
2022-11-13T04:53:27.808Z,15.45
2022-11-13T04:56:14.577Z,15.23
2022-11-13T04:59:01.370Z,15.00
2022-11-13T05:01:55.745Z,16.90
2022-11-13T05:04:42.908Z,16.90
2022-11-13T05:07:29.982Z,16.65
2022-11-13T05:10:16.950Z,16.15
2022-11-13T05:13:04.651Z,15.77
2022-11-13T05:15:52.140Z,16.33
2022-11-13T05:18:39.970Z,16.67
2022-11-13T05:21:27.059Z,17.75
2022-11-13T05:24:14.169Z,15.57
2022-11-13T05:27:01.287Z,14.90
2022-11-13T05:29:48.135Z,15.25
2022-11-13T05:32:35.211Z,15.55
2022-11-13T05:35:22.220Z,14.20
2022-11-13T05:38:09.148Z,14.30
2022-11-13T05:41:01.563Z,14.80
2022-11-13T05:43:49.055Z,13.90
2022-11-13T05:46:35.730Z,14.10
2022-11-13T05:49:22.812Z,14.85
2022-11-13T05:52:09.944Z,14.13
2022-11-13T05:54:56.863Z,15.90
2022-11-13T05:57:43.882Z,14.20
2022-11-13T06:00:30.929Z,14.02
2022-11-13T06:03:17.838Z,14.07
2022-11-13T06:06:06.904Z,14.68
2022-11-13T06:08:55.978Z,16.20
2022-11-13T06:11:44.090Z,17.48
2022-11-13T06:14:30.685Z,16.20
2022-11-13T06:17:17.700Z,16.27
2022-11-13T06:20:05.001Z,15.93
2022-11-13T06:22:51.537Z,15.93
2022-11-13T06:25:38.548Z,14.57
2022-11-13T06:28:25.402Z,15.35
2022-11-13T06:31:21.264Z,15.52
2022-11-13T06:34:08.355Z,14.73
2022-11-13T06:36:55.109Z,16.63
2022-11-13T06:39:42.128Z,15.35
2022-11-13T06:42:29.329Z,16.58
2022-11-13T06:45:16.584Z,15.85
2022-11-13T06:48:03.838Z,14.90
2022-11-13T06:50:51.518Z,13.75
2022-11-13T06:53:38.506Z,15.27
2022-11-13T06:56:25.805Z,16.00
2022-11-13T06:59:12.611Z,14.70
2022-11-13T07:01:59.588Z,14.52
2022-11-13T07:04:46.938Z,13.65
2022-11-13T07:07:34.212Z,14.65
2022-11-13T07:10:21.261Z,14.93
2022-11-13T07:13:09.392Z,13.88
2022-11-13T07:16:09.257Z,14.75
2022-11-13T07:19:00.965Z,14.85
2022-11-13T07:21:48.227Z,14.93
2022-11-13T07:24:35.229Z,14.52
2022-11-13T07:27:22.902Z,14.43
2022-11-13T07:30:10.099Z,15.07
2022-11-13T07:33:01.152Z,16.20
2022-11-13T07:35:48.014Z,13.10
2022-11-13T07:38:36.031Z,14.38
2022-11-13T07:41:23.133Z,14.13
2022-11-13T07:44:12.898Z,14.75
2022-11-13T07:47:03.308Z,14.85
2022-11-13T07:49:50.386Z,14.90
2022-11-13T07:52:37.830Z,14.00
2022-11-13T07:55:25.110Z,13.70
2022-11-13T07:58:12.066Z,13.88
2022-11-13T08:01:04.440Z,14.07
2022-11-13T08:03:51.355Z,13.70
2022-11-13T08:06:41.221Z,14.32
2022-11-13T08:09:28.251Z,13.70
2022-11-13T08:12:15.376Z,12.68
2022-11-13T08:15:03.071Z,13.68
2022-11-13T08:18:04.745Z,12.10
2022-11-13T08:20:51.712Z,13.27
2022-11-13T08:23:38.634Z,13.00
2022-11-13T08:26:25.419Z,12.80
2022-11-13T08:29:12.314Z,12.15
2022-11-13T08:31:59.298Z,11.88
2022-11-13T08:34:46.628Z,11.43
2022-11-13T08:37:33.437Z,11.23
2022-11-13T08:40:20.677Z,11.52
2022-11-13T08:43:07.674Z,11.38
2022-11-13T08:45:55.788Z,11.38
2022-11-13T08:48:43.069Z,10.75
2022-11-13T08:51:29.821Z,10.85
2022-11-13T08:54:19.570Z,11.38
2022-11-13T08:57:06.614Z,10.93
2022-11-13T08:59:54.652Z,10.55
2022-11-13T09:02:47.992Z,11.05
2022-11-13T09:05:34.962Z,10.20
2022-11-13T09:08:21.999Z,11.82
2022-11-13T09:11:09.250Z,11.27
2022-11-13T09:13:55.960Z,10.52
2022-11-13T09:16:42.793Z,11.35
2022-11-13T09:19:29.507Z,11.65
2022-11-13T09:22:17.104Z,12.10
2022-11-13T09:25:04.450Z,12.63
2022-11-13T09:28:00.683Z,12.77
2022-11-13T09:30:47.787Z,12.93
2022-11-13T09:33:35.330Z,11.30
2022-11-13T09:36:22.232Z,11.32
2022-11-13T09:39:09.390Z,10.43
2022-11-13T09:42:18.808Z,11.43
2022-11-13T09:45:12.743Z,10.32
2022-11-13T09:48:29.208Z,10.65
2022-11-13T09:51:24.957Z,10.00
2022-11-13T09:54:16.785Z,10.68
2022-11-13T09:57:15.906Z,10.35
2022-11-13T10:00:10.721Z,10.20
2022-11-13T10:03:03.253Z,9.20
2022-11-13T10:06:18.711Z,9.02
2022-11-13T10:09:25.993Z,8.73
2022-11-13T10:12:14.560Z,9.38
2022-11-13T10:15:03.371Z,9.48
2022-11-13T10:18:00.627Z,9.02
2022-11-13T10:20:51.221Z,9.23
2022-11-13T10:26:28.763Z,9.30
2022-11-13T10:29:18.801Z,9.88
2022-11-13T10:32:23.234Z,9.63
2022-11-13T10:35:28.494Z,10.10
2022-11-13T10:38:44.386Z,8.90
2022-11-13T10:41:31.150Z,9.18
2022-11-13T10:44:21.389Z,9.82
2022-11-13T10:47:42.350Z,10.68
2022-11-13T10:50:32.278Z,10.10
2022-11-13T10:53:20.293Z,9.18
2022-11-13T10:56:20.553Z,9.63
2022-11-13T10:59:14.189Z,10.27
2022-11-13T11:02:15.458Z,9.82
2022-11-13T11:05:15.819Z,10.18
2022-11-13T11:08:10.750Z,9.75
2022-11-13T11:11:32.483Z,9.05
2022-11-13T11:14:32.215Z,8.75
2022-11-13T11:17:22.211Z,8.68
2022-11-13T11:20:39.165Z,8.43
2022-11-13T11:23:49.592Z,7.35
2022-11-13T11:26:54.034Z,6.95
2022-11-13T11:29:58.953Z,7.13
2022-11-13T11:33:01.206Z,6.95
2022-11-13T11:35:50.887Z,7.20
2022-11-13T11:38:52.423Z,8.18
2022-11-13T11:41:46.491Z,6.97
2022-11-13T11:44:58.684Z,6.90
2022-11-13T11:47:45.775Z,8.07
2022-11-13T11:50:41.650Z,8.05
2022-11-13T11:53:45.861Z,9.10
2022-11-13T11:56:40.425Z,10.40
2022-11-13T11:59:38.972Z,8.75
2022-11-13T12:02:45.284Z,10.05
2022-11-13T12:05:58.260Z,7.97
2022-11-13T12:09:08.477Z,6.97
2022-11-13T12:12:01.361Z,6.75
2022-11-13T12:15:08.759Z,8.02
2022-11-13T12:18:20.099Z,7.47
2022-11-13T12:21:07.915Z,8.00
2022-11-13T12:24:01.977Z,7.95
2022-11-13T12:26:51.951Z,7.72
2022-11-13T12:30:16.027Z,7.60
2022-11-13T12:33:23.467Z,8.35
2022-11-13T12:36:12.820Z,8.20
2022-11-13T12:39:20.829Z,7.63
2022-11-13T12:42:22.584Z,7.78
2022-11-13T12:45:46.614Z,7.82
2022-11-13T12:48:34.848Z,7.45
2022-11-13T12:51:21.552Z,7.50
2022-11-13T12:54:10.198Z,7.28
2022-11-13T12:57:17.997Z,7.15
2022-11-13T13:00:22.475Z,6.70
2022-11-13T13:03:23.890Z,6.45
2022-11-13T13:06:50.318Z,6.40
2022-11-13T13:09:53.564Z,5.75
2022-11-13T13:12:46.674Z,6.50
2022-11-13T13:15:40.176Z,6.53
2022-11-13T13:18:33.877Z,6.40
2022-11-13T13:21:21.310Z,6.60
2022-11-13T13:24:24.928Z,5.95
2022-11-13T13:27:26.176Z,6.10
2022-11-13T13:30:26.232Z,6.18
2022-11-13T13:33:37.844Z,5.93
2022-11-13T13:36:39.744Z,6.65
2022-11-13T13:39:32.633Z,6.47
2022-11-13T13:42:40.702Z,6.20
2022-11-13T13:45:55.400Z,6.20
2022-11-13T13:48:45.738Z,6.13
2022-11-13T13:51:40.834Z,6.32
2022-11-13T13:54:32.657Z,6.65
2022-11-13T13:57:19.562Z,7.05
2022-11-13T14:00:15.619Z,6.43
2022-11-13T14:03:03.647Z,7.18
2022-11-13T14:05:50.375Z,6.93
2022-11-13T14:08:37.604Z,7.05
2022-11-13T14:11:29.906Z,6.30
2022-11-13T14:14:21.518Z,6.85
2022-11-13T14:17:13.560Z,7.60
2022-11-13T14:20:05.523Z,7.05
2022-11-13T14:22:56.311Z,7.10
2022-11-13T14:25:44.532Z,7.22
2022-11-13T14:28:44.119Z,7.97
2022-11-13T14:31:34.007Z,7.55
2022-11-13T14:34:23.890Z,7.20
2022-11-13T14:37:33.619Z,8.52
2022-11-13T14:40:26.932Z,8.52
2022-11-13T14:43:21.284Z,8.23
2022-11-13T14:46:30.345Z,8.10
2022-11-13T14:49:37.366Z,7.57
2022-11-13T14:52:27.782Z,8.50
2022-11-13T14:55:24.847Z,8.18
2022-11-13T14:58:15.343Z,7.97
2022-11-13T15:01:17.354Z,7.57
2022-11-13T15:04:04.544Z,8.10
2022-11-13T15:06:55.647Z,7.50
2022-11-13T15:09:42.771Z,8.50
2022-11-13T15:12:29.409Z,7.57
2022-11-13T15:15:25.496Z,8.00
2022-11-13T15:18:19.692Z,8.27
2022-11-13T15:21:06.804Z,8.20
2022-11-13T15:23:53.995Z,8.82
2022-11-13T15:26:41.495Z,7.68
2022-11-13T15:29:28.341Z,9.27
2022-11-13T15:32:17.379Z,9.13
2022-11-13T15:35:05.594Z,9.35
2022-11-13T15:37:52.660Z,9.50
2022-11-13T15:40:39.653Z,8.65
2022-11-13T15:43:27.753Z,8.70
2022-11-13T15:46:18.179Z,9.02
2022-11-13T15:49:05.341Z,8.85
2022-11-13T15:51:52.431Z,8.95
2022-11-13T15:54:40.023Z,9.70
2022-11-13T15:57:29.015Z,10.27
2022-11-13T16:00:25.453Z,9.90
2022-11-13T16:03:12.653Z,10.10
2022-11-13T16:05:59.611Z,9.48
2022-11-13T16:08:48.545Z,9.55
2022-11-13T16:11:35.612Z,10.05
2022-11-13T16:14:24.968Z,10.13
2022-11-13T16:17:14.567Z,10.23
2022-11-13T16:20:03.308Z,11.47
2022-11-13T16:22:50.493Z,10.77
2022-11-13T16:25:37.406Z,10.95
2022-11-13T16:28:25.187Z,11.07
2022-11-13T16:31:12.013Z,13.75
2022-11-13T16:33:58.831Z,10.93
2022-11-13T16:36:46.676Z,11.13
2022-11-13T16:39:33.800Z,13.63
2022-11-13T16:42:20.791Z,13.18
2022-11-13T16:45:08.287Z,16.20
2022-11-13T16:47:55.208Z,14.90
2022-11-13T16:50:42.339Z,10.63
2022-11-13T16:53:29.730Z,11.45
2022-11-13T16:56:30.225Z,11.23
2022-11-13T16:59:17.006Z,9.50
2022-11-13T17:02:04.712Z,9.27
2022-11-13T17:04:55.412Z,9.38
2022-11-13T17:07:42.638Z,9.38
2022-11-13T17:10:31.788Z,9.90
2022-11-13T17:13:18.840Z,9.25
2022-11-13T17:16:05.794Z,9.40
2022-11-13T17:18:53.429Z,9.05
2022-11-13T17:21:44.262Z,9.63
2022-11-13T17:24:31.676Z,10.30
2022-11-13T17:27:20.410Z,11.35
2022-11-13T17:30:08.517Z,10.60
2022-11-13T17:32:55.431Z,10.45
2022-11-13T17:35:42.288Z,11.27
2022-11-13T17:38:29.261Z,11.50
2022-11-13T17:41:16.647Z,10.93
2022-11-13T17:44:05.365Z,12.25
2022-11-13T17:46:52.124Z,11.68
2022-11-13T17:49:39.254Z,10.80
2022-11-13T17:52:26.164Z,12.25
2022-11-13T17:55:14.222Z,13.88
2022-11-13T17:58:02.158Z,12.27
2022-11-13T18:00:49.232Z,11.35
2022-11-13T18:03:36.616Z,12.55
2022-11-13T18:06:24.321Z,11.48
2022-11-13T18:09:11.702Z,12.05
2022-11-13T18:11:58.651Z,12.15
2022-11-13T18:14:52.293Z,12.80
2022-11-13T18:17:39.108Z,13.05
2022-11-13T18:20:27.881Z,12.23
2022-11-13T18:23:15.957Z,11.98
2022-11-13T18:26:11.026Z,13.05
2022-11-13T18:28:59.813Z,12.20
2022-11-13T18:31:47.038Z,12.18
2022-11-13T18:34:34.267Z,12.10
2022-11-13T18:37:20.996Z,12.18
2022-11-13T18:40:08.611Z,12.60
2022-11-13T18:42:55.623Z,14.00
2022-11-13T18:45:42.680Z,14.35
2022-11-13T18:48:33.735Z,13.38
2022-11-13T18:51:23.812Z,14.35
2022-11-13T18:54:13.203Z,13.20
2022-11-13T18:57:00.775Z,14.23
2022-11-13T18:59:47.616Z,13.57
2022-11-13T19:02:34.883Z,13.90
2022-11-13T19:05:21.960Z,13.88
2022-11-13T19:08:08.668Z,14.77
2022-11-13T19:10:55.599Z,14.70
2022-11-13T19:13:44.715Z,13.88
2022-11-13T19:16:38.939Z,15.85
2022-11-13T19:19:25.964Z,14.75
2022-11-13T19:22:12.866Z,15.43
2022-11-13T19:24:59.959Z,14.93
2022-11-13T19:27:46.949Z,15.65
2022-11-13T19:30:33.791Z,17.42
2022-11-13T19:33:22.830Z,19.13
2022-11-13T19:36:15.967Z,22.65
2022-11-13T19:39:05.025Z,23.20
2022-11-13T19:41:51.793Z,24.27
2022-11-13T19:44:41.911Z,24.52
2022-11-13T19:47:31.741Z,25.93
2022-11-13T19:50:19.437Z,26.67
2022-11-13T19:53:06.720Z,30.30
2022-11-13T19:55:55.203Z,27.75
2022-11-13T19:58:44.469Z,28.25
2022-11-13T20:01:32.849Z,27.85
2022-11-13T20:04:19.977Z,26.15
2022-11-13T20:07:07.180Z,22.33
2022-11-13T20:09:54.218Z,24.73
2022-11-13T20:12:41.256Z,24.27
2022-11-13T20:15:27.945Z,22.75
2022-11-13T20:18:16.596Z,22.23
2022-11-13T20:21:05.126Z,23.42
2022-11-13T20:23:55.185Z,21.30
2022-11-13T20:26:42.919Z,22.53
2022-11-13T20:29:32.440Z,20.15
2022-11-13T20:32:19.244Z,20.08
2022-11-13T20:35:09.588Z,19.30
2022-11-13T20:37:57.577Z,20.50
2022-11-13T20:40:44.776Z,20.73
2022-11-13T20:43:34.972Z,19.70
2022-11-13T20:46:22.599Z,20.65
2022-11-13T20:49:09.718Z,20.27
2022-11-13T20:51:57.457Z,24.50
2022-11-13T20:54:44.948Z,21.05
2022-11-13T20:57:34.505Z,24.55
2022-11-13T21:00:24.964Z,21.60
2022-11-13T21:03:11.857Z,22.50
2022-11-13T21:05:58.860Z,22.40
2022-11-13T21:08:46.346Z,20.10
2022-11-13T21:11:34.063Z,21.90
2022-11-13T21:14:21.002Z,21.02
2022-11-13T21:17:07.980Z,21.10
2022-11-13T21:19:57.617Z,21.25
2022-11-13T21:22:44.776Z,22.48
2022-11-13T21:25:31.828Z,24.17
2022-11-13T21:28:23.385Z,21.88
2022-11-13T21:31:14.947Z,23.48
2022-11-13T21:34:03.494Z,22.92
2022-11-13T21:36:50.276Z,22.33
2022-11-13T21:39:38.377Z,23.85
2022-11-13T21:42:25.362Z,23.27
2022-11-13T21:45:12.637Z,22.75
2022-11-13T21:48:00.125Z,21.05
2022-11-13T21:50:46.799Z,24.70
2022-11-13T21:53:34.040Z,22.42
2022-11-13T21:56:21.501Z,22.75
2022-11-13T21:59:08.751Z,22.35
2022-11-13T22:01:55.672Z,22.52
2022-11-13T22:04:42.879Z,22.95
2022-11-13T22:07:32.705Z,21.47
2022-11-13T22:10:19.510Z,21.70
2022-11-13T22:13:06.329Z,20.42
2022-11-13T22:15:53.279Z,22.60
2022-11-13T22:18:40.276Z,19.50
2022-11-13T22:21:28.706Z,23.45
2022-11-13T22:24:15.920Z,20.70
2022-11-13T22:27:03.047Z,22.48
2022-11-13T22:29:50.283Z,19.73
2022-11-13T22:32:37.255Z,18.70
2022-11-13T22:35:24.268Z,19.83
2022-11-13T22:38:12.921Z,19.52
2022-11-13T22:41:28.489Z,19.95
2022-11-13T22:44:16.009Z,17.45
2022-11-13T22:47:02.834Z,18.13
2022-11-13T22:49:49.580Z,18.00
2022-11-13T22:52:36.611Z,17.30
2022-11-13T22:55:23.602Z,17.00
2022-11-13T22:58:10.436Z,16.52
2022-11-13T23:01:07.625Z,17.30
2022-11-13T23:03:56.096Z,17.73
2022-11-13T23:06:43.428Z,17.23
2022-11-13T23:09:30.043Z,17.20
2022-11-13T23:12:17.123Z,16.33
2022-11-13T23:15:04.077Z,17.20
2022-11-13T23:17:50.873Z,16.85
2022-11-13T23:20:42.490Z,17.05
2022-11-13T23:23:30.474Z,17.05
2022-11-13T23:26:18.744Z,17.05
2022-11-13T23:29:05.697Z,16.88
2022-11-13T23:31:52.667Z,17.05
2022-11-13T23:34:58.766Z,18.73
2022-11-13T23:37:47.078Z,19.88
2022-11-13T23:40:35.576Z,18.75
2022-11-13T23:43:36.518Z,19.20
2022-11-13T23:46:30.933Z,18.80
2022-11-13T23:49:18.868Z,18.60
2022-11-13T23:52:05.922Z,18.58
2022-11-13T23:54:53.081Z,18.63
2022-11-13T23:57:40.310Z,18.85
